createdAt,value
2018-12-02T00:01:16.566Z,17.07
2018-12-02T00:03:45.520Z,16.20
2018-12-02T00:06:14.163Z,16.43
2018-12-02T00:08:42.778Z,18.70
2018-12-02T00:11:11.489Z,14.17
2018-12-02T00:13:40.168Z,16.33
2018-12-02T00:16:08.760Z,13.30
2018-12-02T00:18:37.437Z,13.67
2018-12-02T00:21:06.495Z,15.53
2018-12-02T00:23:35.322Z,15.63
2018-12-02T00:26:05.496Z,14.33
2018-12-02T00:28:34.102Z,13.63
2018-12-02T00:31:03.919Z,13.57
2018-12-02T00:33:32.561Z,12.20
2018-12-02T00:36:03.064Z,11.30
2018-12-02T00:38:31.666Z,13.80
2018-12-02T00:41:06.045Z,14.50
2018-12-02T00:43:34.782Z,10.17
2018-12-02T00:46:04.639Z,13.70
2018-12-02T00:48:33.300Z,11.10
2018-12-02T00:51:02.862Z,11.53
2018-12-02T00:53:31.500Z,12.03
2018-12-02T00:55:59.768Z,11.97
2018-12-02T00:58:28.501Z,11.07
2018-12-02T01:00:57.179Z,10.67
2018-12-02T01:03:26.287Z,12.33
2018-12-02T01:05:54.875Z,11.43
2018-12-02T01:08:23.534Z,12.10
2018-12-02T01:10:52.206Z,16.00
2018-12-02T01:13:21.105Z,12.53
2018-12-02T01:15:49.697Z,14.63
2018-12-02T01:18:19.095Z,12.97
2018-12-02T01:20:47.696Z,14.77
2018-12-02T01:23:16.371Z,15.93
2018-12-02T01:25:44.990Z,12.20
2018-12-02T01:28:13.588Z,12.33
2018-12-02T01:30:42.843Z,11.57
2018-12-02T01:33:11.490Z,13.13
2018-12-02T01:35:40.640Z,12.97
2018-12-02T01:38:09.252Z,10.47
2018-12-02T01:40:37.998Z,10.27
2018-12-02T01:43:06.644Z,12.20
2018-12-02T01:45:35.280Z,9.73
2018-12-02T01:48:04.938Z,10.30
2018-12-02T01:50:33.782Z,9.73
2018-12-02T01:53:04.153Z,11.87
2018-12-02T01:55:32.782Z,10.40
2018-12-02T01:58:02.865Z,10.00
2018-12-02T02:00:31.536Z,11.57
2018-12-02T02:03:00.304Z,10.10
2018-12-02T02:05:28.936Z,12.60
2018-12-02T02:07:57.572Z,9.87
2018-12-02T02:10:27.854Z,12.27
2018-12-02T02:12:56.706Z,13.13
2018-12-02T02:15:25.419Z,9.73
2018-12-02T02:17:54.052Z,12.97
2018-12-02T02:20:24.807Z,13.90
2018-12-02T02:22:53.573Z,13.13
2018-12-02T02:25:23.285Z,13.30
2018-12-02T02:27:54.354Z,13.00
2018-12-02T02:30:24.082Z,12.57
2018-12-02T02:32:52.697Z,11.87
2018-12-02T02:35:21.985Z,10.80
2018-12-02T02:37:53.096Z,13.23
2018-12-02T02:40:29.439Z,12.13
2018-12-02T02:42:58.225Z,10.57
2018-12-02T02:45:26.951Z,13.43
2018-12-02T02:47:55.691Z,13.10
2018-12-02T02:50:25.380Z,12.33
2018-12-02T02:52:57.488Z,12.20
2018-12-02T02:55:26.317Z,17.93
2018-12-02T02:57:55.184Z,12.87
2018-12-02T03:00:25.086Z,14.03
2018-12-02T03:02:53.740Z,13.57
2018-12-02T03:05:22.748Z,12.13
2018-12-02T03:07:51.502Z,12.43
2018-12-02T03:10:21.196Z,12.07
2018-12-02T03:12:56.526Z,13.37
2018-12-02T03:15:25.186Z,13.60
2018-12-02T03:17:54.954Z,14.17
2018-12-02T03:20:24.466Z,14.60
2018-12-02T03:22:55.224Z,14.80
2018-12-02T03:25:25.133Z,13.37
2018-12-02T03:27:54.019Z,14.50
2018-12-02T03:30:24.118Z,16.77
2018-12-02T03:32:52.920Z,14.00
2018-12-02T03:35:23.466Z,13.90
2018-12-02T03:37:52.434Z,14.37
2018-12-02T03:40:22.919Z,14.70
2018-12-02T03:42:52.097Z,14.30
2018-12-02T03:45:23.727Z,14.53
2018-12-02T03:47:52.378Z,14.17
2018-12-02T03:50:22.103Z,14.13
2018-12-02T03:52:50.749Z,14.90
2018-12-02T03:55:19.384Z,14.70
2018-12-02T03:57:48.110Z,14.17
2018-12-02T04:00:18.863Z,15.03
2018-12-02T04:02:47.764Z,15.20
2018-12-02T04:05:17.577Z,15.27
2018-12-02T04:07:46.236Z,15.57
2018-12-02T04:10:15.934Z,15.23
2018-12-02T04:12:44.854Z,16.13
2018-12-02T04:15:14.382Z,16.57
2018-12-02T04:17:43.672Z,16.53
2018-12-02T04:20:13.730Z,16.67
2018-12-02T04:22:42.559Z,16.47
2018-12-02T04:25:14.499Z,16.83
2018-12-02T04:27:43.108Z,16.73
2018-12-02T04:30:13.768Z,15.87
2018-12-02T04:32:42.438Z,17.03
2018-12-02T04:35:13.598Z,16.87
2018-12-02T04:37:42.552Z,15.73
2018-12-02T04:40:12.136Z,16.87
2018-12-02T04:42:41.430Z,17.57
2018-12-02T04:45:12.985Z,17.27
2018-12-02T04:47:41.899Z,17.43
2018-12-02T04:50:14.627Z,17.63
2018-12-02T04:52:43.276Z,17.70
2018-12-02T04:55:12.025Z,17.13
2018-12-02T04:57:41.356Z,17.43
2018-12-02T05:00:13.661Z,17.33
2018-12-02T05:02:42.778Z,17.43
2018-12-02T05:05:12.692Z,17.00
2018-12-02T05:07:41.731Z,16.80
2018-12-02T05:10:13.640Z,16.40
2018-12-02T05:12:42.412Z,17.17
2018-12-02T05:15:13.170Z,17.97
2018-12-02T05:17:42.172Z,17.53
2018-12-02T05:20:14.046Z,17.20
2018-12-02T05:22:42.699Z,18.60
2018-12-02T05:25:17.338Z,16.87
2018-12-02T05:27:42.866Z,17.23
2018-12-02T05:30:12.315Z,17.67
2018-12-02T05:32:41.495Z,15.93
2018-12-02T05:35:11.200Z,16.97
2018-12-02T05:37:39.820Z,17.43
2018-12-02T05:40:13.035Z,17.17
2018-12-02T05:42:41.699Z,17.67
2018-12-02T05:45:12.307Z,15.67
2018-12-02T05:47:40.955Z,16.57
2018-12-02T05:50:12.258Z,15.60
2018-12-02T05:52:40.929Z,16.67
2018-12-02T05:55:12.740Z,16.10
2018-12-02T05:57:41.487Z,16.47
2018-12-02T06:00:19.443Z,15.97
2018-12-02T06:02:48.118Z,15.70
2018-12-02T06:05:16.745Z,15.97
2018-12-02T06:07:45.409Z,15.60
2018-12-02T06:10:16.024Z,15.70
2018-12-02T06:12:44.843Z,15.47
2018-12-02T06:15:14.647Z,16.83
2018-12-02T06:17:43.387Z,16.23
2018-12-02T06:20:16.377Z,16.37
2018-12-02T06:22:45.209Z,16.73
2018-12-02T06:25:13.916Z,16.83
2018-12-02T06:27:42.550Z,18.20
2018-12-02T06:30:17.032Z,16.70
2018-12-02T06:32:46.337Z,17.93
2018-12-02T06:35:15.465Z,18.03
2018-12-02T06:37:44.189Z,18.90
2018-12-02T06:40:14.207Z,18.23
2018-12-02T06:42:42.913Z,18.70
2018-12-02T06:45:12.674Z,18.43
2018-12-02T06:47:41.335Z,18.97
2018-12-02T06:50:12.601Z,18.80
2018-12-02T06:52:41.266Z,19.00
2018-12-02T06:55:19.938Z,19.50
2018-12-02T06:57:54.389Z,18.17
2018-12-02T07:01:32.991Z,18.73
2018-12-02T07:04:10.842Z,19.07
2018-12-02T07:06:39.552Z,19.33
2018-12-02T07:09:09.991Z,19.70
2018-12-02T07:11:38.617Z,19.30
2018-12-02T07:14:07.314Z,18.70
2018-12-02T07:16:36.587Z,19.07
2018-12-02T07:19:11.585Z,18.67
2018-12-02T07:21:42.502Z,18.03
2018-12-02T07:24:13.753Z,18.33
2018-12-02T07:26:47.466Z,17.83
2018-12-02T07:29:16.264Z,18.07
2018-12-02T07:31:45.139Z,18.27
2018-12-02T07:34:13.769Z,18.07
2018-12-02T07:36:42.505Z,17.80
2018-12-02T07:39:37.683Z,17.07
2018-12-02T07:42:06.448Z,18.37
2018-12-02T07:44:35.133Z,18.97
2018-12-02T07:47:05.538Z,18.73
2018-12-02T07:49:35.738Z,18.50
2018-12-02T07:52:06.235Z,18.37
2018-12-02T07:54:34.876Z,19.23
2018-12-02T07:57:05.918Z,19.10
2018-12-02T07:59:34.577Z,18.73
2018-12-02T08:02:04.186Z,17.93
2018-12-02T08:04:33.306Z,17.27
2018-12-02T08:07:04.006Z,19.13
2018-12-02T08:09:32.622Z,17.37
2018-12-02T08:12:03.278Z,17.70
2018-12-02T08:14:31.954Z,15.87
2018-12-02T08:17:00.694Z,16.20
2018-12-02T08:19:29.327Z,14.63
2018-12-02T08:21:58.041Z,14.50
2018-12-02T08:24:26.694Z,14.20
2018-12-02T08:26:55.299Z,14.83
2018-12-02T08:29:23.922Z,14.60
2018-12-02T08:31:52.866Z,13.90
2018-12-02T08:34:21.511Z,13.07
2018-12-02T08:36:50.126Z,13.37
2018-12-02T08:39:23.961Z,13.47
2018-12-02T08:41:52.613Z,13.17
2018-12-02T08:44:21.395Z,13.27
2018-12-02T08:46:50.058Z,13.60
2018-12-02T08:49:18.880Z,13.37
2018-12-02T08:51:47.509Z,13.47
2018-12-02T08:54:16.337Z,12.17
2018-12-02T08:56:45.019Z,11.83
2018-12-02T08:59:13.647Z,11.87
2018-12-02T09:01:42.377Z,11.57
2018-12-02T09:04:11.027Z,12.20
2018-12-02T09:06:39.763Z,12.07
2018-12-02T09:09:10.482Z,11.83
2018-12-02T09:11:39.185Z,11.83
2018-12-02T09:14:07.835Z,11.47
2018-12-02T09:16:36.467Z,11.33
2018-12-02T09:19:07.410Z,11.00
2018-12-02T09:21:36.148Z,11.93
2018-12-02T09:24:06.955Z,11.23
2018-12-02T09:26:35.616Z,11.20
2018-12-02T09:29:05.857Z,11.50
2018-12-02T09:31:34.483Z,11.83
2018-12-02T09:34:06.880Z,11.53
2018-12-02T09:36:35.508Z,12.27
2018-12-02T09:39:09.405Z,11.63
2018-12-02T09:41:38.161Z,11.93
2018-12-02T09:44:06.993Z,11.13
2018-12-02T09:46:35.625Z,10.83
2018-12-02T09:49:05.388Z,10.07
2018-12-02T09:51:34.045Z,10.37
2018-12-02T09:54:04.790Z,9.93
2018-12-02T09:56:33.504Z,9.00
2018-12-02T09:59:04.569Z,9.30
2018-12-02T10:01:33.240Z,8.40
2018-12-02T10:04:03.294Z,8.63
2018-12-02T10:06:32.200Z,8.70
2018-12-02T10:09:00.850Z,8.60
2018-12-02T10:11:29.532Z,9.67
2018-12-02T10:13:58.541Z,7.63
2018-12-02T10:16:27.182Z,7.60
2018-12-02T10:18:55.841Z,7.33
2018-12-02T10:21:24.764Z,7.20
2018-12-02T10:23:53.678Z,7.23
2018-12-02T10:26:22.310Z,6.83
2018-12-02T10:28:50.967Z,6.50
2018-12-02T10:31:19.790Z,6.90
2018-12-02T10:33:48.464Z,5.90
2018-12-02T10:36:17.106Z,6.13
2018-12-02T10:38:45.769Z,5.90
2018-12-02T10:41:14.404Z,4.70
2018-12-02T10:43:43.249Z,5.40
2018-12-02T10:46:13.441Z,5.13
2018-12-02T10:48:40.669Z,5.63
2018-12-02T10:51:09.363Z,4.90
2018-12-02T10:53:37.984Z,6.37
2018-12-02T10:56:07.383Z,5.23
2018-12-02T10:58:36.515Z,5.27
2018-12-02T11:01:13.590Z,5.63
2018-12-02T11:03:42.210Z,5.33
2018-12-02T11:06:10.876Z,4.83
2018-12-02T11:08:39.510Z,5.30
2018-12-02T11:11:08.154Z,5.40
2018-12-02T11:13:37.085Z,6.00
2018-12-02T11:16:06.147Z,6.00
2018-12-02T11:18:34.805Z,5.97
2018-12-02T11:21:06.533Z,6.97
2018-12-02T11:23:35.144Z,6.53
2018-12-02T11:26:06.669Z,6.40
2018-12-02T11:28:35.359Z,6.23
2018-12-02T11:31:05.410Z,6.83
2018-12-02T11:33:34.181Z,7.10
2018-12-02T11:36:05.423Z,7.20
2018-12-02T11:38:34.679Z,6.17
2018-12-02T11:41:15.984Z,6.87
2018-12-02T11:43:44.968Z,7.17
2018-12-02T11:46:13.640Z,5.70
2018-12-02T11:48:42.280Z,5.93
2018-12-02T11:51:11.068Z,6.97
2018-12-02T11:53:39.791Z,6.37
2018-12-02T11:56:08.587Z,6.40
2018-12-02T11:58:37.208Z,6.73
2018-12-02T12:01:06.298Z,6.60
2018-12-02T12:03:35.010Z,6.43
2018-12-02T12:06:05.862Z,7.67
2018-12-02T12:08:34.655Z,6.30
2018-12-02T12:11:04.466Z,6.30
2018-12-02T12:13:33.152Z,5.43
2018-12-02T12:16:03.454Z,5.13
2018-12-02T12:18:32.150Z,6.03
2018-12-02T12:21:00.829Z,5.73
2018-12-02T12:23:29.528Z,5.93
2018-12-02T12:25:58.199Z,5.53
2018-12-02T12:28:28.459Z,5.73
2018-12-02T12:30:57.111Z,5.30
2018-12-02T12:33:25.746Z,5.63
2018-12-02T12:35:54.465Z,8.70
2018-12-02T12:38:23.079Z,6.10
2018-12-02T12:40:52.484Z,6.33
2018-12-02T12:43:24.957Z,6.50
2018-12-02T12:46:02.899Z,5.43
2018-12-02T12:48:31.612Z,6.20
2018-12-02T12:51:00.446Z,4.90
2018-12-02T12:53:29.213Z,5.70
2018-12-02T12:55:57.852Z,5.87
2018-12-02T12:58:26.524Z,5.60
2018-12-02T13:00:55.191Z,5.53
2018-12-02T13:03:23.801Z,5.63
2018-12-02T13:05:52.438Z,5.70
2018-12-02T13:08:21.070Z,5.87
2018-12-02T13:10:49.715Z,5.33
2018-12-02T13:13:18.442Z,5.73
2018-12-02T13:15:47.104Z,5.20
2018-12-02T13:18:16.077Z,5.63
2018-12-02T13:20:52.057Z,6.47
2018-12-02T13:23:21.110Z,6.97
2018-12-02T13:25:49.777Z,9.90
2018-12-02T13:28:18.404Z,6.97
2018-12-02T13:30:47.154Z,6.93
2018-12-02T13:33:16.064Z,7.80
2018-12-02T13:35:44.687Z,7.37
2018-12-02T13:38:13.353Z,6.90
2018-12-02T13:40:43.492Z,6.70
2018-12-02T13:43:15.626Z,5.63
2018-12-02T13:45:44.607Z,5.93
2018-12-02T13:48:13.275Z,5.90
2018-12-02T13:50:42.371Z,6.53
2018-12-02T13:53:11.038Z,6.20
2018-12-02T13:55:39.651Z,7.70
2018-12-02T13:58:08.695Z,7.57
2018-12-02T14:00:39.155Z,7.90
2018-12-02T14:03:12.207Z,9.03
2018-12-02T14:05:46.325Z,8.10
2018-12-02T14:08:14.985Z,10.53
2018-12-02T14:10:44.588Z,10.20
2018-12-02T14:13:23.732Z,11.20
2018-12-02T14:15:58.814Z,11.87
2018-12-02T14:18:32.007Z,12.13
2018-12-02T14:21:01.049Z,12.53
2018-12-02T14:23:32.269Z,14.07
2018-12-02T14:26:06.943Z,12.07
2018-12-02T14:28:45.424Z,14.07
2018-12-02T14:31:14.198Z,12.37
2018-12-02T14:33:42.824Z,12.23
2018-12-02T14:36:11.484Z,13.33
2018-12-02T14:38:40.444Z,14.43
2018-12-02T14:41:14.290Z,13.07
2018-12-02T14:43:43.063Z,15.10
2018-12-02T14:46:11.809Z,14.40
2018-12-02T14:48:40.521Z,16.67
2018-12-02T14:51:09.192Z,13.60
2018-12-02T14:53:38.073Z,15.30
2018-12-02T14:56:07.122Z,17.40
2018-12-02T14:58:35.817Z,15.70
2018-12-02T15:01:05.055Z,16.00
2018-12-02T15:03:33.857Z,15.53
2018-12-02T15:06:03.919Z,14.53
2018-12-02T15:08:32.601Z,15.13
2018-12-02T15:11:03.100Z,13.30
2018-12-02T15:13:32.684Z,15.07
2018-12-02T15:16:04.235Z,15.93
2018-12-02T15:18:33.002Z,15.23
2018-12-02T15:21:03.193Z,15.73
2018-12-02T15:23:32.150Z,14.23
2018-12-02T15:26:00.816Z,15.23
2018-12-02T15:28:29.841Z,15.00
2018-12-02T15:30:58.478Z,14.33
2018-12-02T15:33:27.096Z,12.53
2018-12-02T15:35:55.795Z,12.73
2018-12-02T15:38:24.470Z,12.43
2018-12-02T15:40:53.528Z,12.00
2018-12-02T15:43:22.541Z,13.53
2018-12-02T15:45:52.129Z,14.33
2018-12-02T15:48:20.826Z,12.23
2018-12-02T15:50:50.538Z,12.60
2018-12-02T15:53:18.190Z,11.73
2018-12-02T15:55:46.840Z,13.03
2018-12-02T15:58:15.909Z,12.23
2018-12-02T16:00:46.648Z,11.70
2018-12-02T16:03:15.345Z,13.37
2018-12-02T16:05:44.019Z,12.50
2018-12-02T16:08:12.834Z,12.67
2018-12-02T16:10:42.061Z,9.70
2018-12-02T16:13:12.133Z,12.47
2018-12-02T16:15:41.110Z,11.30
2018-12-02T16:18:12.281Z,11.33
2018-12-02T16:20:46.364Z,12.83
2018-12-02T16:23:17.396Z,11.17
2018-12-02T16:25:46.519Z,10.70
2018-12-02T16:28:15.878Z,13.27
2018-12-02T16:30:45.061Z,12.60
2018-12-02T16:33:13.823Z,17.43
2018-12-02T16:35:42.466Z,12.77
2018-12-02T16:38:12.621Z,15.20
2018-12-02T16:40:41.263Z,14.37
2018-12-02T16:43:11.153Z,12.47
2018-12-02T16:45:39.907Z,13.37
2018-12-02T16:48:10.282Z,12.73
2018-12-02T16:50:41.358Z,12.23
2018-12-02T16:53:14.231Z,9.50
2018-12-02T16:56:20.499Z,11.43
2018-12-02T16:58:57.264Z,9.03
2018-12-02T17:01:27.090Z,12.10
2018-12-02T17:04:00.019Z,14.37
2018-12-02T17:06:28.684Z,12.63
2018-12-02T17:08:58.659Z,12.70
2018-12-02T17:11:27.374Z,12.83
2018-12-02T17:13:56.064Z,14.20
2018-12-02T17:16:24.797Z,12.67
2018-12-02T17:18:53.551Z,12.10
2018-12-02T17:21:22.213Z,10.33
2018-12-02T17:23:50.850Z,11.13
2018-12-02T17:26:19.525Z,10.40
2018-12-02T17:28:48.197Z,9.07
2018-12-02T17:31:21.024Z,8.33
2018-12-02T17:33:49.719Z,11.57
2018-12-02T17:36:19.709Z,9.20
2018-12-02T17:38:50.050Z,11.53
2018-12-02T17:41:18.854Z,6.60
2018-12-02T17:43:47.573Z,10.27
2018-12-02T17:46:17.108Z,8.50
2018-12-02T17:48:45.777Z,9.10
2018-12-02T17:51:14.457Z,8.33
2018-12-02T17:53:43.583Z,11.23
2018-12-02T17:56:12.510Z,7.47
2018-12-02T17:58:41.353Z,8.07
2018-12-02T18:01:10.232Z,8.57
2018-12-02T18:03:39.360Z,8.73
2018-12-02T18:06:10.169Z,6.67
2018-12-02T18:08:39.195Z,6.70
2018-12-02T18:11:08.446Z,5.87
2018-12-02T18:13:37.240Z,7.73
2018-12-02T18:16:05.997Z,8.27
2018-12-02T18:18:34.994Z,7.90
2018-12-02T18:21:05.628Z,9.67
2018-12-02T18:23:35.163Z,7.23
2018-12-02T18:26:05.691Z,7.50
2018-12-02T18:28:35.222Z,7.33
2018-12-02T18:31:07.821Z,8.47
2018-12-02T18:33:36.552Z,8.30
2018-12-02T18:36:10.566Z,8.57
2018-12-02T18:38:40.990Z,8.40
2018-12-02T18:41:49.573Z,8.50
2018-12-02T18:44:18.900Z,6.37
2018-12-02T18:46:48.283Z,6.03
2018-12-02T18:49:17.014Z,6.77
2018-12-02T18:51:45.808Z,7.03
2018-12-02T18:54:14.615Z,6.23
2018-12-02T18:56:43.785Z,7.83
2018-12-02T18:59:12.554Z,6.03
2018-12-02T19:01:41.558Z,5.33
2018-12-02T19:04:10.317Z,6.20
2018-12-02T19:06:39.249Z,5.97
2018-12-02T19:09:10.746Z,8.23
2018-12-02T19:11:39.760Z,8.53
2018-12-02T19:14:08.986Z,4.87
2018-12-02T19:16:37.745Z,6.57
2018-12-02T19:19:07.562Z,7.77
2018-12-02T19:21:38.482Z,8.13
2018-12-02T19:24:08.234Z,8.60
2018-12-02T19:26:37.092Z,6.20
2018-12-02T19:29:07.813Z,7.43
2018-12-02T19:31:36.705Z,9.17
2018-12-02T19:34:06.893Z,8.20
2018-12-02T19:36:51.753Z,6.47
2018-12-02T19:39:21.020Z,8.00
2018-12-02T19:41:50.858Z,8.53
2018-12-02T19:44:19.681Z,10.57
2018-12-02T19:46:48.539Z,7.10
2018-12-02T19:49:17.403Z,9.67
2018-12-02T19:51:46.204Z,8.87
2018-12-02T19:54:18.504Z,11.60
2018-12-02T19:56:48.827Z,10.23
2018-12-02T19:59:18.333Z,7.63
2018-12-02T20:01:51.015Z,8.90
2018-12-02T20:04:21.952Z,11.63
2018-12-02T20:06:52.375Z,9.13
2018-12-02T20:09:23.008Z,10.87
2018-12-02T20:11:52.511Z,9.63
2018-12-02T20:14:24.782Z,11.20
2018-12-02T20:16:56.950Z,9.17
2018-12-02T20:19:32.275Z,12.40
2018-12-02T20:22:04.300Z,9.00
2018-12-02T20:24:43.697Z,11.23
2018-12-02T20:27:14.366Z,11.27
2018-12-02T20:29:44.792Z,11.00
2018-12-02T20:32:16.549Z,10.50
2018-12-02T20:34:47.549Z,11.70
2018-12-02T20:37:18.377Z,7.93
2018-12-02T20:39:48.091Z,10.00
2018-12-02T20:42:19.434Z,13.13
2018-12-02T20:44:52.868Z,12.40
2018-12-02T20:47:25.616Z,12.87
2018-12-02T20:49:55.233Z,12.70
2018-12-02T20:52:25.236Z,12.97
2018-12-02T20:54:56.890Z,11.53
2018-12-02T20:57:29.471Z,11.93
2018-12-02T20:59:59.689Z,9.50
2018-12-02T21:02:29.298Z,11.67
2018-12-02T21:05:01.257Z,9.17
2018-12-02T21:07:30.971Z,10.63
2018-12-02T21:10:00.102Z,8.57
2018-12-02T21:12:29.077Z,9.47
2018-12-02T21:14:57.801Z,9.20
2018-12-02T21:17:27.375Z,10.97
2018-12-02T21:19:56.439Z,11.07
2018-12-02T21:22:25.452Z,11.90
2018-12-02T21:24:54.751Z,10.33
2018-12-02T21:27:24.576Z,12.27
2018-12-02T21:29:53.238Z,11.97
2018-12-02T21:32:22.578Z,12.97
2018-12-02T21:34:51.430Z,11.80
2018-12-02T21:37:20.946Z,10.20
2018-12-02T21:39:50.357Z,15.83
2018-12-02T21:42:19.027Z,9.70
2018-12-02T21:44:48.058Z,11.03
2018-12-02T21:47:21.125Z,9.50
2018-12-02T21:49:46.138Z,12.87
2018-12-02T21:52:15.945Z,10.47
2018-12-02T21:54:44.717Z,12.00
2018-12-02T21:57:13.813Z,12.53
2018-12-02T21:59:42.566Z,11.93
2018-12-02T22:02:11.293Z,10.57
2018-12-02T22:04:40.345Z,14.13
2018-12-02T22:07:09.859Z,12.17
2018-12-02T22:09:38.952Z,10.90
2018-12-02T22:12:07.886Z,12.90
2018-12-02T22:14:40.629Z,14.80
2018-12-02T22:17:09.826Z,13.90
2018-12-02T22:19:38.631Z,13.83
2018-12-02T22:22:07.373Z,13.93
2018-12-02T22:24:36.110Z,15.03
2018-12-02T22:27:05.844Z,16.13
2018-12-02T22:29:35.815Z,14.67
2018-12-02T22:32:06.397Z,16.03
2018-12-02T22:34:35.326Z,16.33
2018-12-02T22:37:07.416Z,18.50
2018-12-02T22:39:36.083Z,14.03
2018-12-02T22:42:05.769Z,14.17
2018-12-02T22:44:34.546Z,16.20
2018-12-02T22:47:06.154Z,16.73
2018-12-02T22:49:34.833Z,17.97
2018-12-02T22:52:05.287Z,14.00
2018-12-02T22:54:33.954Z,17.23
2018-12-02T22:57:03.900Z,14.63
2018-12-02T22:59:32.559Z,18.57
2018-12-02T23:02:06.586Z,18.80
2018-12-02T23:04:35.327Z,16.10
2018-12-02T23:07:06.053Z,20.20
2018-12-02T23:09:34.715Z,16.87
2018-12-02T23:12:04.612Z,18.90
2018-12-02T23:14:33.287Z,17.00
2018-12-02T23:17:21.041Z,19.40
2018-12-02T23:19:49.733Z,18.47
2018-12-02T23:22:18.401Z,20.60
2018-12-02T23:24:47.102Z,20.60
2018-12-02T23:27:15.786Z,23.00
2018-12-02T23:29:44.544Z,19.73
2018-12-02T23:32:13.412Z,21.83
2018-12-02T23:34:42.152Z,19.37
2018-12-02T23:37:10.990Z,20.23
2018-12-02T23:39:39.623Z,20.43
2018-12-02T23:42:08.360Z,18.43
2018-12-02T23:44:40.447Z,20.10
2018-12-02T23:47:09.094Z,21.13
2018-12-02T23:49:37.823Z,23.13
2018-12-02T23:52:06.757Z,20.60
2018-12-02T23:54:35.705Z,22.80
2018-12-02T23:57:05.484Z,24.17
2018-12-02T23:59:34.150Z,23.93
